WetterOnline ( https://www.wetteronline.de )

Wetter aktuell Olbernhau

Aktuelles Wetter: Marienberg (640m)

6-stündlich | Neueste Meldungen
Ortszeit Temperatur Wetter
Di, 27.09. 2:00 9.0° C bewölkt
Mo, 26.09. 20:00 9.3° C wolkig
Mo, 26.09. 14:00 12.2° C wolkenlos
Mo, 26.09. 8:00 7.7° C bedeckt
Mo, 26.09. 2:00 9.3° C bedeckt
So, 25.09. 20:00 9.9° C bedeckt
So, 25.09. 14:00 15.0° C leicht bewölkt
So, 25.09. 8:00 7.6° C bedeckt
Ortszeit Temperatur Wetter
Di, 27.09. 3:00 8.5° C bedeckt
Di, 27.09. 2:40 8.5° C bedeckt
Di, 27.09. 2:30 8.7° C bewölkt
Di, 27.09. 2:20 8.7° C bewölkt
Di, 27.09. 2:10 8.7° C bewölkt
Di, 27.09. 2:00 9.0° C bewölkt
Di, 27.09. 1:50 9.0° C bewölkt
Di, 27.09. 1:30 8.8° C bewölkt
Di, 27.09. 1:00 8.7° C bewölkt
Di, 27.09. 0:30 8.8° C leichter Regen
Di, 27.09. 0:00 8.6° C wolkig
Ortszeit Relative Feuchte Sichtweite
Di, 27.09. 2:00 75% >70 km
Mo, 26.09. 20:00 73% 55 km
Mo, 26.09. 14:00 56% 45 km
Mo, 26.09. 8:00 97% 7 km
Mo, 26.09. 2:00 97% 8 km
So, 25.09. 20:00 90% 28 km
So, 25.09. 14:00 63% 45 km
So, 25.09. 8:00 95% 25 km
Ortszeit Relative Feuchte Sichtweite
Di, 27.09. 3:00 79% 55 km
Di, 27.09. 2:40 79% -
Di, 27.09. 2:30 78% >70 km
Di, 27.09. 2:20 78% -
Di, 27.09. 2:10 78% -
Di, 27.09. 2:00 75% >70 km
Di, 27.09. 1:50 75% -
Di, 27.09. 1:30 77% 65 km
Di, 27.09. 1:00 78% >70 km
Di, 27.09. 0:30 77% 60 km
Di, 27.09. 0:00 78% 55 km
Ortszeit Niederschlagsmenge Niederschlagsart
Di, 27.09. 2:00 0.1 l/m2 in 6 Std. Regen
Mo, 26.09. 20:00 0.1 l/m2 in 12 Std. -
Mo, 26.09. 14:00 0.1 l/m2 in 6 Std. Regen
Mo, 26.09. 8:00 3 l/m2 in 12 Std. Regen
Mo, 26.09. 2:00 0.1 l/m2 in 6 Std. Regen
So, 25.09. 20:00 0.6 l/m2 in 12 Std. Regen
So, 25.09. 14:00 0.0 l/m2 in 6 Std. -
So, 25.09. 8:00 0.0 l/m2 in 12 Std. -
Ortszeit Niederschlagsmenge Niederschlagsart
Di, 27.09. 3:00 <0.05 l/m2 in 1 Std. Regen
Di, 27.09. 2:40 keine Meldung -
Di, 27.09. 2:30 <0.05 l/m2 in 1 Std. Schnee
Di, 27.09. 2:20 keine Meldung -
Di, 27.09. 2:10 keine Meldung -
Di, 27.09. 2:00 <0.05 l/m2 in 1 Std. Regen
Di, 27.09. 1:50 keine Meldung -
Di, 27.09. 1:30 0.0 l/m2 in 1 Std. -
Di, 27.09. 1:00 <0.05 l/m2 in 1 Std. Regen
Di, 27.09. 0:30 <0.05 l/m2 in 1 Std. -
Di, 27.09. 0:00 0.0 l/m2 in 1 Std. -
Ortszeit Stärke Spitze Richtung
km/h Bft. km/h Grad Sektor
Di, 27.09. 2:00 14 3 36 220° SW
Mo, 26.09. 20:00 7 2 31 220° SW
Mo, 26.09. 14:00 11 2 25 250° W
Mo, 26.09. 8:00 4 1 22 240° SW
Mo, 26.09. 2:00 4 1 14 260° W
So, 25.09. 20:00 4 1 22 120° SO
So, 25.09. 14:00 6 1 17 30° NO
So, 25.09. 8:00 4 1 14 250° W
Ortszeit Stärke Spitze Richtung
km/h Bft. km/h Grad Sektor
Di, 27.09. 3:00 7 2 26 170° S
Di, 27.09. 2:40 9 2 - 170° S
Di, 27.09. 2:30 11 2 22 190° S
Di, 27.09. 2:20 11 2 - 190° S
Di, 27.09. 2:10 9 2 - 190° S
Di, 27.09. 2:00 14 3 29 220° SW
Di, 27.09. 1:50 14 3 - 220° SW
Di, 27.09. 1:30 9 2 22 210° SW
Di, 27.09. 1:00 4 1 18 190° S
Di, 27.09. 0:30 7 2 18 210° SW
Di, 27.09. 0:00 9 2 22 220° SW
Ortszeit Untergrenze Bedeckung Gattung
total tief tief mittel hoch
Di, 27.09. 2:00 1200 m 7/8 7/8 - - -
Mo, 26.09. 20:00 1800 m 7/8 1/8 - - -
Mo, 26.09. 14:00 - 0/8 0/8 - - -
Mo, 26.09. 8:00 210 m 8/8 8/8 - - -
Mo, 26.09. 2:00 60 m 8/8 8/8 - - -
So, 25.09. 20:00 1500 m 8/8 8/8 - - -
So, 25.09. 14:00 1440 m 4/8 4/8 - - -
So, 25.09. 8:00 2400 m 8/8 8/8 - - -
Ortszeit Bedeckungsgrad in Achtel und Wolkenuntergrenze
Di, 27.09. 3:00 8(2700m)
Di, 27.09. 2:40 8
Di, 27.09. 2:30 2(1800m) 7(2700m)
Di, 27.09. 2:20 2(1800m) 7(2700m)
Di, 27.09. 2:10 7
Di, 27.09. 2:00 2(1200m) 4(1500m) 7(2700m)
Di, 27.09. 1:50 2(1200m) 4(1500m) 7(2700m)
Di, 27.09. 1:30 7(2400m)
Di, 27.09. 1:00 1(1500m) 4(2100m) 7(2700m)
Di, 27.09. 0:30 6(1500m)
Di, 27.09. 0:00 4(1800m) 6(2100m) 6(4200m)
Ortszeit Luftdruck NN (hPa) Tendenz (hPa in 3 Std.)
Di, 27.09. 2:00 999 - 2,5
Mo, 26.09. 20:00 1003 - 0,9
Mo, 26.09. 14:00 1005 - 1,3
Mo, 26.09. 8:00 1008 - 0,5
Mo, 26.09. 2:00 1009 - 1,1
So, 25.09. 20:00 1010 - 0,6
So, 25.09. 14:00 1010 - 0,9
So, 25.09. 8:00 1013 0,0
Ortszeit Luftdruck NN (hPa) Tendenz (hPa in 3 Std.)
Di, 27.09. 3:00 998 - 2,9
Di, 27.09. 2:40 998 keine Meldung
Di, 27.09. 2:30 999 - 2,8
Di, 27.09. 2:20 999 keine Meldung
Di, 27.09. 2:10 999 keine Meldung
Di, 27.09. 2:00 999 - 2,5
Di, 27.09. 1:50 999 keine Meldung
Di, 27.09. 1:30 1000 - 2,3
Di, 27.09. 1:00 1000 - 2,1
Di, 27.09. 0:30 1001 - 2,0
Di, 27.09. 0:00 1001 - 1,7
Ortszeit Schneehöhe (cm)
Di, 27.09. 2:00 0
Mo, 26.09. 20:00 0
Mo, 26.09. 14:00 0
Mo, 26.09. 8:00 0
Mo, 26.09. 2:00 0
So, 25.09. 20:00 0
So, 25.09. 14:00 0
So, 25.09. 8:00 0
Ortszeit Schneehöhe (cm)
Di, 27.09. 3:00 0
Di, 27.09. 2:40 0
Di, 27.09. 2:30 0
Di, 27.09. 2:20 0
Di, 27.09. 2:10 0
Di, 27.09. 2:00 0
Di, 27.09. 1:50 0
Di, 27.09. 1:30 0
Di, 27.09. 1:00 0
Di, 27.09. 0:30 0
Di, 27.09. 0:00 0
Link zu dieser Seite / Seite empfehlen

Das Wetter in ...